Time;durP1;ratioP1;P1;durP2;ratioP2;P2;SDS_P1;SDS_P2;PMS_P1;PMS_P2;Temp;Humidity;BMP_temperature;BMP_pressure;BME280_temperature;BME280_humidity;BME280_pressure;Samples;Min_cycle;Max_cycle;Signal;HPM_P1;HPM_P2
2022/01/17 00:00:52;;;;;;;8.40;3.08;;;7.60;95.60;;;;;;5056331;28;20384;-48
2022/01/17 00:03:18;;;;;;;8.57;3.67;;;7.50;95.60;;;;;;5053344;28;20442;-48
2022/01/17 00:05:44;;;;;;;11.25;5.28;;;7.60;95.60;;;;;;5053847;28;20508;-48
2022/01/17 00:08:09;;;;;;;12.43;4.15;;;7.60;95.60;;;;;;5058665;28;20643;-48
2022/01/17 00:10:35;;;;;;;9.15;4.22;;;7.60;95.70;;;;;;5057907;28;20032;-48
2022/01/17 00:13:01;;;;;;;7.80;3.90;;;7.60;95.70;;;;;;5057525;28;20488;-48
2022/01/17 00:15:42;;;;;;;11.70;5.35;;;7.60;95.70;;;;;;5061277;28;20337;-48
2022/01/17 00:20:40;;;;;;;9.82;4.30;;;7.50;95.70;;;;;;5062306;28;20112;-48
2022/01/17 00:23:06;;;;;;;12.88;4.40;;;7.60;95.70;;;;;;5057213;28;20396;-48
2022/01/17 00:25:32;;;;;;;7.68;3.67;;;7.60;95.70;;;;;;5061539;28;20043;-48
2022/01/17 00:27:57;;;;;;;9.38;4.15;;;7.60;95.70;;;;;;5055501;28;20083;-48
2022/01/17 00:30:23;;;;;;;7.82;3.85;;;7.60;95.80;;;;;;5061720;28;20064;-48
2022/01/17 00:32:48;;;;;;;8.82;3.47;;;7.60;95.80;;;;;;5068992;28;20139;-48
2022/01/17 00:35:15;;;;;;;10.40;3.50;;;7.60;95.80;;;;;;5067894;28;20065;-48
2022/01/17 00:37:41;;;;;;;7.85;3.97;;;7.60;95.80;;;;;;5069535;28;20036;-48
2022/01/17 00:40:08;;;;;;;7.63;3.55;;;7.60;95.80;;;;;;5066410;28;20024;-48
2022/01/17 00:42:34;;;;;;;6.93;4.00;;;7.50;95.80;;;;;;5066851;28;20021;-48
2022/01/17 00:45:02;;;;;;;8.05;3.50;;;7.60;95.80;;;;;;5060054;28;20047;-48
2022/01/17 00:47:28;;;;;;;8.90;3.83;;;7.60;95.80;;;;;;5061752;28;20075;-48
2022/01/17 00:49:53;;;;;;;12.15;4.72;;;7.60;95.80;;;;;;5059830;28;20032;-48
2022/01/17 00:52:19;;;;;;;9.55;3.97;;;7.60;95.90;;;;;;5057510;28;20033;-48
2022/01/17 00:54:44;;;;;;;8.38;3.58;;;7.60;96.20;;;;;;5059888;28;20130;-48
2022/01/17 00:57:10;;;;;;;6.30;3.22;;;7.60;95.80;;;;;;5058258;28;20025;-48
2022/01/17 00:59:36;;;;;;;6.97;3.55;;;7.60;95.90;;;;;;5060036;28;20037;-48
2022/01/17 01:02:02;;;;;;;7.72;3.33;;;7.60;95.90;;;;;;5058892;28;20024;-48
2022/01/17 01:04:28;;;;;;;12.05;4.75;;;7.60;95.90;;;;;;5055161;28;20033;-48
2022/01/17 01:06:53;;;;;;;8.25;4.13;;;7.60;95.90;;;;;;5061215;28;20484;-48
2022/01/17 01:09:19;;;;;;;12.90;4.93;;;7.50;95.80;;;;;;5059559;28;20025;-48
2022/01/17 01:11:45;;;;;;;14.40;5.95;;;7.60;95.90;;;;;;5057957;28;20036;-48
2022/01/17 01:14:11;;;;;;;9.77;5.03;;;7.50;95.90;;;;;;5060653;28;20111;-48
2022/01/17 01:16:37;;;;;;;11.15;4.22;;;7.50;95.80;;;;;;5055994;28;20033;-48
2022/01/17 01:19:09;;;;;;;12.70;5.45;;;7.60;95.90;;;;;;5058348;28;20089;-48
2022/01/17 01:29:32;;;;;;;18.85;6.93;;;7.60;95.80;;;;;;5059082;28;20098;-48
2022/01/17 01:32:05;;;;;;;11.13;4.78;;;7.50;95.80;;;;;;5058454;28;20445;-48
2022/01/17 01:34:39;;;;;;;11.50;5.32;;;7.50;95.90;;;;;;5059260;28;20029;-48
2022/01/17 01:37:05;;;;;;;18.15;6.13;;;7.60;95.90;;;;;;5061483;28;20064;-48
2022/01/17 01:39:32;;;;;;;13.98;5.80;;;7.50;95.70;;;;;;5057321;28;20067;-48
2022/01/17 01:41:58;;;;;;;7.45;3.45;;;7.60;95.80;;;;;;5057770;28;20032;-48
2022/01/17 01:44:25;;;;;;;7.50;2.95;;;7.50;95.70;;;;;;5059807;28;20032;-48
2022/01/17 01:46:53;;;;;;;11.55;4.32;;;7.50;95.80;;;;;;5060133;28;20099;-48
2022/01/17 01:49:20;;;;;;;21.08;7.97;;;7.50;95.70;;;;;;5059477;28;20027;-48
2022/01/17 01:51:46;;;;;;;15.02;6.20;;;7.60;95.90;;;;;;5057864;28;20400;-48
2022/01/17 01:54:13;;;;;;;16.65;5.45;;;7.60;95.80;;;;;;5056570;28;20083;-48
2022/01/17 01:56:40;;;;;;;15.30;5.55;;;7.50;95.80;;;;;;5061282;28;20112;-48
2022/01/17 01:59:07;;;;;;;16.52;6.18;;;7.50;95.80;;;;;;5059279;28;20032;-48
2022/01/17 02:01:33;;;;;;;17.10;5.97;;;7.50;95.80;;;;;;5056819;28;20056;-48
2022/01/17 02:03:59;;;;;;;6.35;3.88;;;7.50;95.80;;;;;;5056826;28;20170;-48
2022/01/17 02:06:24;;;;;;;6.15;3.45;;;7.50;95.70;;;;;;5059300;28;20124;-48
2022/01/17 02:08:50;;;;;;;14.07;5.93;;;7.50;95.80;;;;;;5059934;28;20082;-48
2022/01/17 02:11:17;;;;;;;16.17;7.40;;;7.50;95.80;;;;;;5059417;28;20025;-48
2022/01/17 02:13:43;;;;;;;18.25;6.97;;;7.50;95.70;;;;;;5057010;28;20484;-47
2022/01/17 02:16:12;;;;;;;14.88;7.18;;;7.50;95.80;;;;;;5058077;28;20033;-48
2022/01/17 02:18:38;;;;;;;16.10;7.22;;;7.50;95.80;;;;;;5053339;28;20032;-48
2022/01/17 02:21:50;;;;;;;17.33;6.63;;;7.60;95.90;;;;;;5060877;28;20600;-48
2022/01/17 02:23:52;;;;;;;20.17;8.10;;;7.50;95.80;;;;;;5058343;28;20044;-48
2022/01/17 02:26:19;;;;;;;12.00;5.88;;;7.50;95.90;;;;;;5062466;28;20129;-48
2022/01/17 02:28:47;;;;;;;17.15;6.50;;;7.50;95.80;;;;;;5058500;28;20028;-48
2022/01/17 02:31:14;;;;;;;10.57;4.75;;;7.50;95.90;;;;;;5058806;28;20463;-48
2022/01/17 02:33:39;;;;;;;10.60;4.80;;;7.50;95.80;;;;;;5057000;28;20032;-48
2022/01/17 02:36:05;;;;;;;17.83;7.57;;;7.50;95.80;;;;;;5056925;28;20032;-48
2022/01/17 02:38:31;;;;;;;15.32;7.32;;;7.50;95.80;;;;;;5058575;28;20060;-48
2022/01/17 02:40:57;;;;;;;13.48;5.70;;;7.50;95.90;;;;;;5058986;28;20041;-49
2022/01/17 02:43:24;;;;;;;13.38;5.50;;;7.50;95.90;;;;;;5057692;28;20112;-48
2022/01/17 02:48:33;;;;;;;14.55;6.63;;;7.50;95.80;;;;;;5057430;28;20025;-48
2022/01/17 02:51:01;;;;;;;13.27;5.47;;;7.50;95.80;;;;;;5057632;28;20292;-47
2022/01/17 02:53:27;;;;;;;14.65;7.10;;;7.50;95.80;;;;;;5057742;28;20037;-47
2022/01/17 02:56:04;;;;;;;18.90;6.13;;;7.50;95.90;;;;;;5055629;28;20025;-48
2022/01/17 02:58:34;;;;;;;17.73;6.25;;;7.50;95.90;;;;;;5056454;28;20032;-48
2022/01/17 03:01:04;;;;;;;19.23;7.18;;;7.50;95.90;;;;;;5058394;28;20029;-48
2022/01/17 03:03:30;;;;;;;21.77;7.47;;;7.50;95.80;;;;;;5053217;28;20045;-48
2022/01/17 03:05:57;;;;;;;17.05;5.53;;;7.50;95.90;;;;;;5056687;28;20072;-48
2022/01/17 03:08:25;;;;;;;13.32;5.95;;;7.50;95.90;;;;;;5055723;28;20027;-48
2022/01/17 03:10:52;;;;;;;16.77;6.65;;;7.50;95.80;;;;;;5059395;28;20039;-48
2022/01/17 03:13:25;;;;;;;14.50;5.63;;;7.50;95.90;;;;;;5058551;28;20024;-48
2022/01/17 03:15:57;;;;;;;11.43;5.22;;;7.50;95.90;;;;;;5057841;28;20068;-48
2022/01/17 03:18:24;;;;;;;12.80;6.13;;;7.50;95.90;;;;;;5053007;28;20031;-47
2022/01/17 03:20:49;;;;;;;14.65;5.55;;;7.50;95.90;;;;;;5063747;28;20046;-48
2022/01/17 03:23:15;;;;;;;14.65;5.70;;;7.60;95.90;;;;;;5057117;28;20021;-48
2022/01/17 03:25:41;;;;;;;16.48;5.72;;;7.50;95.90;;;;;;5057639;28;20036;-48
2022/01/17 03:28:08;;;;;;;13.55;5.90;;;7.50;95.90;;;;;;5057524;28;20154;-48
2022/01/17 03:30:35;;;;;;;15.73;6.32;;;7.50;95.90;;;;;;5057470;28;20037;-48
2022/01/17 03:33:09;;;;;;;12.13;5.38;;;7.50;95.80;;;;;;5057387;28;20067;-48
2022/01/17 03:35:36;;;;;;;13.48;6.20;;;7.50;95.90;;;;;;5059048;28;20053;-48
2022/01/17 03:38:02;;;;;;;15.23;6.18;;;7.50;95.90;;;;;;5058352;28;20036;-48
2022/01/17 03:40:28;;;;;;;13.35;5.28;;;7.50;95.90;;;;;;5056487;28;20338;-48
2022/01/17 03:42:53;;;;;;;10.13;4.65;;;7.50;95.90;;;;;;5059801;28;20031;-48
2022/01/17 03:45:19;;;;;;;11.88;5.80;;;7.50;95.90;;;;;;5058474;28;20265;-48
2022/01/17 03:47:49;;;;;;;9.35;4.97;;;7.50;95.90;;;;;;5059491;28;20479;-48
2022/01/17 03:50:18;;;;;;;9.57;4.95;;;7.50;95.90;;;;;;5057716;28;20115;-48
2022/01/17 03:52:43;;;;;;;12.13;4.88;;;7.50;95.90;;;;;;5062214;28;20035;-48
2022/01/17 03:55:12;;;;;;;17.48;5.60;;;7.50;95.90;;;;;;5057181;28;20025;-48
2022/01/17 03:57:37;;;;;;;14.57;5.93;;;7.50;95.90;;;;;;5061203;28;20117;-48
2022/01/17 04:00:08;;;;;;;13.68;5.90;;;7.50;95.90;;;;;;5059763;28;20112;-48
2022/01/17 04:02:34;;;;;;;15.52;5.50;;;7.50;95.90;;;;;;5058768;28;20025;-48
2022/01/17 04:05:00;;;;;;;13.00;5.15;;;7.50;95.90;;;;;;5062124;28;20045;-48
2022/01/17 04:07:26;;;;;;;12.30;5.75;;;7.50;95.90;;;;;;5058019;28;20075;-48
2022/01/17 04:09:52;;;;;;;11.93;5.90;;;7.50;95.90;;;;;;5058255;28;20428;-48
2022/01/17 04:12:17;;;;;;;11.38;5.57;;;7.50;95.90;;;;;;5060090;28;20068;-48
2022/01/17 04:14:43;;;;;;;13.13;5.40;;;7.50;95.90;;;;;;5061779;28;20053;-49
2022/01/17 04:17:08;;;;;;;16.38;5.50;;;7.50;95.90;;;;;;5060413;28;20040;-48
2022/01/17 04:19:34;;;;;;;18.95;6.82;;;7.50;95.90;;;;;;5061602;28;20464;-48
2022/01/17 04:22:01;;;;;;;18.02;5.70;;;7.50;96.00;;;;;;5059985;28;20035;-48
2022/01/17 04:24:26;;;;;;;14.13;5.05;;;7.50;96.00;;;;;;5060297;28;20095;-48
2022/01/17 04:26:52;;;;;;;19.77;5.55;;;7.50;96.00;;;;;;5065174;28;20408;-48
2022/01/17 04:29:20;;;;;;;9.70;4.38;;;7.50;96.00;;;;;;5057014;28;20449;-48
2022/01/17 04:31:46;;;;;;;12.95;4.93;;;7.50;96.00;;;;;;5056683;28;20039;-48
2022/01/17 04:34:11;;;;;;;7.22;3.53;;;7.50;96.00;;;;;;5060381;28;20119;-48
2022/01/17 04:36:37;;;;;;;12.65;4.38;;;7.50;96.30;;;;;;5059982;28;20029;-48
2022/01/17 04:39:03;;;;;;;12.90;5.13;;;7.50;96.30;;;;;;5055334;28;20067;-48
2022/01/17 04:41:37;;;;;;;9.48;4.95;;;7.50;96.00;;;;;;5063033;28;20065;-48
2022/01/17 04:45:07;;;;;;;11.40;4.95;;;7.50;96.00;;;;;;5060806;28;20033;-48
2022/01/17 04:46:49;;;;;;;13.30;4.13;;;7.50;96.00;;;;;;5059086;28;20045;-48
2022/01/17 04:49:15;;;;;;;15.05;4.75;;;7.50;96.00;;;;;;5062345;28;20035;-48
2022/01/17 04:51:41;;;;;;;14.07;5.32;;;7.50;96.00;;;;;;5057710;28;20025;-48
2022/01/17 04:54:35;;;;;;;8.82;3.63;;;7.50;96.00;;;;;;5057145;28;20025;-48
2022/01/17 04:56:53;;;;;;;9.68;4.22;;;7.50;96.00;;;;;;5059563;28;20114;-48
2022/01/17 04:59:18;;;;;;;10.43;4.78;;;7.50;96.00;;;;;;5058645;28;20048;-48
2022/01/17 05:01:44;;;;;;;10.68;3.67;;;7.50;96.00;;;;;;5058201;28;20037;-48
2022/01/17 05:04:09;;;;;;;8.93;5.35;;;7.50;96.00;;;;;;5058050;28;20034;-48
2022/01/17 05:06:35;;;;;;;14.93;5.32;;;7.50;96.00;;;;;;5056766;28;20450;-48
2022/01/17 05:09:04;;;;;;;15.10;3.33;;;7.50;96.00;;;;;;5058964;28;20112;-48
2022/01/17 05:11:31;;;;;;;10.63;4.05;;;7.50;96.00;;;;;;5060638;28;20129;-48
2022/01/17 05:13:57;;;;;;;8.38;4.65;;;7.50;96.00;;;;;;5060810;28;20028;-48
2022/01/17 05:16:31;;;;;;;13.85;4.32;;;7.50;96.00;;;;;;5061796;28;20029;-48
2022/01/17 05:21:41;;;;;;;12.40;5.13;;;7.50;96.00;;;;;;5058640;28;20062;-48
2022/01/17 05:24:07;;;;;;;6.53;3.70;;;7.50;96.00;;;;;;5058387;28;20029;-48
2022/01/17 05:26:33;;;;;;;13.32;4.18;;;7.50;96.00;;;;;;5057794;28;20029;-48
2022/01/17 05:28:58;;;;;;;13.13;4.22;;;7.50;96.00;;;;;;5063595;28;20028;-48
2022/01/17 05:31:24;;;;;;;11.70;4.47;;;7.50;96.10;;;;;;5059351;28;20404;-48
2022/01/17 05:33:49;;;;;;;12.98;4.78;;;7.50;96.00;;;;;;5059843;28;20033;-48
2022/01/17 05:36:15;;;;;;;9.57;4.32;;;7.50;96.00;;;;;;5056697;28;20377;-48
2022/01/17 05:38:40;;;;;;;9.05;4.30;;;7.50;96.00;;;;;;5060366;28;20052;-48
2022/01/17 05:41:06;;;;;;;6.80;3.72;;;7.50;96.00;;;;;;5058955;28;20025;-48
2022/01/17 05:43:32;;;;;;;8.70;4.05;;;7.50;96.10;;;;;;5059866;28;20112;-48
2022/01/17 05:45:57;;;;;;;15.82;5.57;;;7.50;96.00;;;;;;5055020;28;20037;-48
2022/01/17 05:48:23;;;;;;;12.32;4.03;;;7.50;96.10;;;;;;5062372;28;20017;-48
2022/01/17 05:50:49;;;;;;;9.52;4.40;;;7.50;96.00;;;;;;5059933;28;20069;-48
2022/01/17 05:53:14;;;;;;;7.85;3.67;;;7.50;96.10;;;;;;5058013;28;20060;-48
2022/01/17 05:55:41;;;;;;;10.90;5.20;;;7.50;96.10;;;;;;5060556;28;20040;-48
2022/01/17 05:58:07;;;;;;;9.77;4.22;;;7.50;96.10;;;;;;5063242;28;20130;-48
2022/01/17 06:00:33;;;;;;;8.98;4.00;;;7.50;96.10;;;;;;5075322;28;20025;-48
2022/01/17 06:02:58;;;;;;;10.63;4.20;;;7.50;96.10;;;;;;5075897;28;20318;-48
2022/01/17 06:05:24;;;;;;;3.33;2.10;;;7.50;96.10;;;;;;5063859;28;20072;-48
2022/01/17 06:07:50;;;;;;;2.92;1.80;;;7.50;96.10;;;;;;5064753;28;20056;-48
2022/01/17 06:10:15;;;;;;;6.80;3.45;;;7.50;96.00;;;;;;5073557;28;20366;-48
2022/01/17 06:12:41;;;;;;;5.90;3.10;;;7.50;96.00;;;;;;5070909;28;20016;-48
2022/01/17 06:15:07;;;;;;;8.43;3.75;;;7.50;96.00;;;;;;5057316;28;20104;-48
2022/01/17 06:17:33;;;;;;;12.10;3.90;;;7.50;96.00;;;;;;5056396;28;20053;-48
2022/01/17 06:19:59;;;;;;;10.27;3.33;;;7.50;96.00;;;;;;5061337;28;20078;-48
2022/01/17 06:22:24;;;;;;;8.85;3.95;;;7.50;96.10;;;;;;5055628;28;20021;-48
2022/01/17 06:24:50;;;;;;;11.27;3.70;;;7.50;96.00;;;;;;5055017;28;20036;-48
2022/01/17 06:27:17;;;;;;;8.50;3.80;;;7.60;96.10;;;;;;5056070;28;20511;-47
2022/01/17 06:29:42;;;;;;;9.43;3.22;;;7.50;96.10;;;;;;5062394;28;20433;-48
2022/01/17 06:32:08;;;;;;;15.93;4.00;;;7.50;96.10;;;;;;5060872;28;20039;-48
2022/01/17 06:34:33;;;;;;;8.02;4.00;;;7.50;96.10;;;;;;5058961;28;20146;-48
2022/01/17 06:36:59;;;;;;;11.02;3.78;;;7.50;96.10;;;;;;5062140;28;20107;-48
2022/01/17 06:39:25;;;;;;;7.88;3.90;;;7.60;96.20;;;;;;5060524;28;20017;-47
2022/01/17 06:41:50;;;;;;;8.20;4.03;;;7.50;96.10;;;;;;5058606;28;20033;-48
2022/01/17 06:44:17;;;;;;;6.57;3.67;;;7.50;96.20;;;;;;5062329;28;20021;-47
2022/01/17 06:46:43;;;;;;;7.45;3.90;;;7.50;96.20;;;;;;5060054;28;20025;-48
2022/01/17 06:49:09;;;;;;;8.65;3.42;;;7.50;96.20;;;;;;5059519;28;20025;-47
2022/01/17 06:51:35;;;;;;;9.02;3.15;;;7.50;96.20;;;;;;5058292;28;20143;-48
2022/01/17 06:54:01;;;;;;;7.55;3.75;;;7.60;96.30;;;;;;5060809;28;20044;-48
2022/01/17 06:56:26;;;;;;;7.90;3.78;;;7.60;96.30;;;;;;5061487;28;20025;-48
2022/01/17 06:58:52;;;;;;;7.35;3.33;;;7.50;96.20;;;;;;5059889;28;20044;-48
2022/01/17 07:01:20;;;;;;;9.88;3.80;;;7.50;96.30;;;;;;5059486;28;20025;-48
2022/01/17 07:03:46;;;;;;;10.68;4.38;;;7.60;96.30;;;;;;5061197;28;20419;-48
2022/01/17 07:06:12;;;;;;;7.88;4.00;;;7.60;96.30;;;;;;5060326;28;20361;-48
2022/01/17 07:08:37;;;;;;;10.18;3.80;;;7.60;96.40;;;;;;5059793;28;20025;-48
2022/01/17 07:11:03;;;;;;;8.98;3.85;;;7.60;96.40;;;;;;5061859;28;20024;-48
2022/01/17 07:13:29;;;;;;;11.52;4.10;;;7.60;96.40;;;;;;5059521;28;20339;-47
2022/01/17 07:15:55;;;;;;;11.15;4.07;;;7.60;96.40;;;;;;5059401;28;20032;-48
2022/01/17 07:18:20;;;;;;;9.95;3.55;;;7.60;96.40;;;;;;5058652;28;20116;-48
2022/01/17 07:20:47;;;;;;;9.90;4.60;;;7.60;96.40;;;;;;5061333;28;20036;-48
2022/01/17 07:23:12;;;;;;;11.00;5.15;;;7.60;96.40;;;;;;5064885;28;20016;-48
2022/01/17 07:25:38;;;;;;;9.88;5.03;;;7.60;96.40;;;;;;5063803;28;20040;-48
2022/01/17 07:28:06;;;;;;;12.40;4.57;;;7.60;96.40;;;;;;5064086;28;20434;-47
2022/01/17 07:30:32;;;;;;;10.73;4.18;;;7.60;96.40;;;;;;5066252;28;20033;-48
2022/01/17 07:32:57;;;;;;;9.50;3.72;;;7.60;96.40;;;;;;5060634;28;20044;-48
2022/01/17 07:35:23;;;;;;;8.18;3.60;;;7.60;96.40;;;;;;5065569;28;20073;-48
2022/01/17 07:37:49;;;;;;;7.32;3.60;;;7.60;96.50;;;;;;5062770;28;20032;-47
2022/01/17 07:40:14;;;;;;;8.13;3.40;;;7.60;96.40;;;;;;5064325;28;20366;-48
2022/01/17 07:42:40;;;;;;;7.30;2.90;;;7.60;96.40;;;;;;5064940;28;20119;-48
2022/01/17 07:45:12;;;;;;;2.75;2.05;;;7.60;96.40;;;;;;5063146;28;20477;-48
2022/01/17 07:47:43;;;;;;;4.63;2.80;;;7.60;96.40;;;;;;5065924;28;20025;-48
2022/01/17 07:50:16;;;;;;;5.97;2.92;;;7.60;96.40;;;;;;5061864;28;20036;-47
2022/01/17 07:52:42;;;;;;;10.68;4.07;;;7.60;96.40;;;;;;5064673;28;20028;-48
2022/01/17 07:55:09;;;;;;;12.05;3.75;;;7.60;96.50;;;;;;5064006;28;20090;-48
2022/01/17 07:57:36;;;;;;;5.70;3.63;;;7.60;96.50;;;;;;5062615;28;20490;-48
2022/01/17 08:00:03;;;;;;;6.28;3.60;;;7.60;96.90;;;;;;5062966;28;20040;-48
2022/01/17 08:02:28;;;;;;;7.38;3.63;;;7.60;96.50;;;;;;5061002;28;20091;-48
2022/01/17 08:04:54;;;;;;;11.15;4.22;;;7.60;96.50;;;;;;5061815;28;20461;-48
2022/01/17 08:07:19;;;;;;;6.90;2.72;;;7.60;96.50;;;;;;5063200;28;20029;-48
2022/01/17 08:09:45;;;;;;;10.75;3.92;;;7.60;96.50;;;;;;5063189;28;20037;-48
2022/01/17 08:12:11;;;;;;;6.65;3.20;;;7.60;96.50;;;;;;5064257;28;20016;-48
2022/01/17 08:14:37;;;;;;;5.78;3.42;;;7.60;96.60;;;;;;5063378;28;20020;-48
2022/01/17 08:17:03;;;;;;;12.18;3.67;;;7.60;96.50;;;;;;5063042;28;20366;-48
2022/01/17 08:19:29;;;;;;;7.10;3.65;;;7.60;96.50;;;;;;5059659;28;20025;-48
2022/01/17 08:21:56;;;;;;;10.93;4.32;;;7.60;96.60;;;;;;5062947;28;20351;-48
2022/01/17 08:24:22;;;;;;;7.57;3.17;;;7.60;96.60;;;;;;5064764;28;20025;-47
2022/01/17 08:26:50;;;;;;;7.70;3.08;;;7.60;96.50;;;;;;5062533;28;20053;-48
2022/01/17 08:29:16;;;;;;;11.38;3.75;;;7.60;96.50;;;;;;5062485;28;20032;-48
2022/01/17 08:31:47;;;;;;;9.23;3.95;;;7.60;96.60;;;;;;5063996;28;20204;-48
2022/01/17 08:34:17;;;;;;;6.10;2.90;;;7.60;96.60;;;;;;5062621;28;20029;-48
2022/01/17 08:36:46;;;;;;;8.65;4.00;;;7.60;96.60;;;;;;5062026;28;20039;-48
2022/01/17 08:39:12;;;;;;;7.40;3.70;;;7.60;96.60;;;;;;5063017;28;20048;-48
2022/01/17 08:41:42;;;;;;;6.40;3.40;;;7.70;96.70;;;;;;5063555;28;20342;-48
2022/01/17 08:44:12;;;;;;;7.75;3.60;;;7.60;96.70;;;;;;5063373;28;20092;-47
2022/01/17 08:46:38;;;;;;;8.65;3.70;;;7.60;96.70;;;;;;5061516;28;20509;-48
2022/01/17 08:49:03;;;;;;;7.53;3.15;;;7.60;96.70;;;;;;5061429;28;20033;-47
2022/01/17 08:51:29;;;;;;;9.15;3.08;;;7.60;96.70;;;;;;5061082;28;20464;-48
2022/01/17 08:53:55;;;;;;;7.22;3.38;;;7.60;96.80;;;;;;5064456;28;20121;-48
2022/01/17 08:56:20;;;;;;;5.22;2.40;;;7.60;96.80;;;;;;5062674;28;20079;-48
2022/01/17 08:58:46;;;;;;;5.97;2.78;;;7.60;96.80;;;;;;5061947;28;20477;-47
2022/01/17 09:01:13;;;;;;;5.57;2.35;;;7.60;96.80;;;;;;5064261;28;20021;-48
2022/01/17 09:03:40;;;;;;;2.70;1.73;;;7.60;96.90;;;;;;5060007;28;20043;-48
2022/01/17 09:06:06;;;;;;;5.65;2.85;;;7.70;96.90;;;;;;5060833;28;20037;-48
2022/01/17 09:08:32;;;;;;;3.53;2.45;;;7.70;96.90;;;;;;5063482;28;20029;-47
2022/01/17 09:10:58;;;;;;;8.82;3.08;;;7.70;96.90;;;;;;5063617;28;20052;-48
2022/01/17 09:13:25;;;;;;;5.10;2.60;;;7.60;96.90;;;;;;5060211;28;20108;-48
2022/01/17 09:15:52;;;;;;;4.63;2.33;;;7.60;97.00;;;;;;5062935;28;20040;-48
2022/01/17 09:18:19;;;;;;;4.13;2.38;;;7.70;97.00;;;;;;5062733;28;20082;-48
2022/01/17 09:20:45;;;;;;;2.38;1.67;;;7.70;97.00;;;;;;5060101;28;20040;-48
2022/01/17 09:23:11;;;;;;;3.25;1.77;;;7.70;97.00;;;;;;5061859;28;20039;-47
2022/01/17 09:25:37;;;;;;;0.57;0.57;;;7.70;97.10;;;;;;5064301;28;20032;-48
2022/01/17 09:28:03;;;;;;;4.72;2.25;;;7.70;97.10;;;;;;5061845;28;20420;-48
2022/01/17 09:30:29;;;;;;;2.95;1.67;;;7.70;97.10;;;;;;5061195;28;20357;-48
2022/01/17 09:32:55;;;;;;;3.85;2.35;;;7.70;97.20;;;;;;5063041;28;20025;-48
2022/01/17 09:35:20;;;;;;;4.95;1.88;;;7.70;97.20;;;;;;5059467;28;20354;-48
2022/01/17 09:37:46;;;;;;;4.00;2.03;;;7.70;97.20;;;;;;5060814;28;20021;-48
2022/01/17 09:40:12;;;;;;;2.50;1.45;;;7.70;97.30;;;;;;5060837;28;20048;-49
2022/01/17 09:42:38;;;;;;;1.92;1.33;;;7.70;97.30;;;;;;5061565;28;20071;-48
2022/01/17 09:45:07;;;;;;;3.72;2.25;;;7.70;97.30;;;;;;5062431;28;20497;-48
2022/01/17 09:47:34;;;;;;;3.88;1.58;;;7.70;97.30;;;;;;5061612;28;20028;-48
2022/01/17 09:50:01;;;;;;;8.07;2.40;;;7.70;97.30;;;;;;5060778;28;20406;-48
2022/01/17 09:52:34;;;;;;;5.15;2.10;;;7.80;97.40;;;;;;5059722;28;20592;-48
2022/01/17 09:55:22;;;;;;;3.28;1.75;;;7.80;97.40;;;;;;5060759;28;20033;-48
2022/01/17 09:57:49;;;;;;;8.13;1.45;;;7.80;97.40;;;;;;5062835;28;20073;-48
2022/01/17 10:00:17;;;;;;;3.60;1.95;;;7.80;97.30;;;;;;5061440;28;20064;-48
2022/01/17 10:02:43;;;;;;;1.75;1.27;;;7.80;97.50;;;;;;5057180;28;20374;-48
2022/01/17 10:05:09;;;;;;;2.70;1.35;;;7.80;97.40;;;;;;5060595;28;20052;-48
2022/01/17 10:07:56;;;;;;;2.97;1.65;;;7.80;97.40;;;;;;5062134;28;20040;-48
2022/01/17 10:10:40;;;;;;;1.08;1.02;;;7.80;97.50;;;;;;5062677;28;20398;-49
2022/01/17 10:13:23;;;;;;;2.22;1.20;;;7.80;97.40;;;;;;5061992;28;20029;-48
2022/01/17 10:16:16;;;;;;;2.25;1.40;;;7.80;97.60;;;;;;5062448;28;20077;-48
2022/01/17 10:19:00;;;;;;;3.15;1.40;;;7.80;97.60;;;;;;5062019;28;20021;-48
2022/01/17 10:21:45;;;;;;;2.97;1.65;;;7.90;97.80;;;;;;5059344;28;20024;-48
2022/01/17 10:24:24;;;;;;;3.05;1.30;;;7.90;97.90;;;;;;5060577;28;20039;-48
2022/01/17 10:27:13;;;;;;;3.42;1.80;;;7.90;97.90;;;;;;5059774;28;20519;-48
2022/01/17 10:35:33;;;;;;;2.33;1.27;;;7.90;97.90;;;;;;5061665;28;20031;-48
2022/01/17 10:38:20;;;;;;;2.75;1.17;;;8.00;98.50;;;;;;5061440;28;20093;-48
2022/01/17 10:40:59;;;;;;;1.70;1.17;;;8.00;98.30;;;;;;5062584;28;20059;-48
2022/01/17 10:43:35;;;;;;;1.13;0.90;;;8.00;98.70;;;;;;5060917;28;20031;-48
2022/01/17 10:46:05;;;;;;;2.83;1.17;;;8.00;98.90;;;;;;5060274;28;20075;-48
2022/01/17 10:48:40;;;;;;;3.40;1.42;;;8.10;98.80;;;;;;5059442;28;20057;-48
2022/01/17 10:51:07;;;;;;;1.05;0.95;;;8.10;99.00;;;;;;5059242;28;20040;-48
2022/01/17 10:53:34;;;;;;;1.88;1.00;;;8.10;98.90;;;;;;5059058;28;20032;-48
2022/01/17 10:56:06;;;;;;;1.15;1.00;;;8.10;99.00;;;;;;5061659;28;20043;-48
2022/01/17 10:58:33;;;;;;;3.78;1.00;;;8.10;99.10;;;;;;5061841;28;20036;-48
2022/01/17 11:01:18;;;;;;;2.67;1.20;;;8.10;98.90;;;;;;5060496;28;20045;-48
2022/01/17 11:03:46;;;;;;;1.50;1.00;;;8.10;99.10;;;;;;5056563;28;20295;-48
2022/01/17 11:06:20;;;;;;;1.42;1.13;;;8.10;99.10;;;;;;5054648;28;20099;-48
2022/01/17 11:08:46;;;;;;;1.70;1.02;;;8.10;98.90;;;;;;5060739;28;20028;-48
2022/01/17 11:11:12;;;;;;;4.00;1.25;;;8.10;98.80;;;;;;5061460;28;20033;-48
2022/01/17 11:13:43;;;;;;;3.97;1.10;;;8.10;98.80;;;;;;5059054;28;20036;-48
2022/01/17 11:16:12;;;;;;;;;;;8.10;98.70;;;;;;5059630;28;20461;-48
2022/01/17 11:18:41;;;;;;;0.80;0.80;;;8.10;99.00;;;;;;5061259;28;19911;-48
2022/01/17 11:21:14;;;;;;;1.35;0.95;;;8.10;99.10;;;;;;5054553;28;20354;-48
2022/01/17 11:23:53;;;;;;;1.70;0.93;;;8.20;99.20;;;;;;5059902;28;20255;-48
2022/01/17 11:26:18;;;;;;;0.90;0.80;;;8.20;99.00;;;;;;5059538;28;20354;-48
2022/01/17 11:28:44;;;;;;;1.80;1.02;;;8.10;98.90;;;;;;5059788;28;20028;-48
2022/01/17 11:31:13;;;;;;;0.60;0.60;;;8.10;99.00;;;;;;5061533;28;20182;-48
2022/01/17 11:33:39;;;;;;;1.38;0.90;;;8.10;99.00;;;;;;5059659;28;20025;-49
2022/01/17 11:36:05;;;;;;;1.10;1.00;;;8.10;99.10;;;;;;5055092;28;20029;-48
2022/01/17 11:38:34;;;;;;;2.70;1.10;;;8.10;98.90;;;;;;5059259;28;20079;-48
2022/01/17 11:41:01;;;;;;;1.08;0.90;;;8.10;98.90;;;;;;5060115;28;20082;-47
2022/01/17 11:43:34;;;;;;;1.10;0.98;;;8.10;98.90;;;;;;5060989;28;20029;-49
2022/01/17 11:46:18;;;;;;;1.13;1.00;;;8.10;98.90;;;;;;5060815;28;20465;-48
2022/01/17 11:48:52;;;;;;;1.08;0.98;;;8.10;98.80;;;;;;5061165;28;20013;-48
2022/01/17 11:51:18;;;;;;;0.68;0.68;;;8.10;98.80;;;;;;5052780;28;20025;-48
2022/01/17 11:53:47;;;;;;;2.22;1.05;;;8.10;98.80;;;;;;5061082;28;20438;-48
2022/01/17 11:56:35;;;;;;;1.02;0.63;;;8.10;98.80;;;;;;5057818;28;20064;-48
2022/01/17 11:59:21;;;;;;;1.60;1.30;;;8.10;98.60;;;;;;5059884;28;20048;-48
2022/01/17 12:02:12;;;;;;;1.67;0.90;;;8.20;98.70;;;;;;5058948;28;20033;-48
2022/01/17 12:04:38;;;;;;;0.65;0.65;;;8.10;98.60;;;;;;5057659;28;20036;-48
2022/01/17 12:07:03;;;;;;;0.70;0.70;;;8.20;98.60;;;;;;5058040;28;20025;-48
2022/01/17 12:09:29;;;;;;;2.00;0.95;;;8.10;98.70;;;;;;5063476;28;20446;-48
2022/01/17 12:12:07;;;;;;;1.40;0.75;;;8.10;98.70;;;;;;5061398;28;20343;-48
2022/01/17 12:14:35;;;;;;;3.92;0.40;;;8.20;98.50;;;;;;5063267;28;20335;-48
2022/01/17 12:17:19;;;;;;;0.20;0.20;;;8.20;98.40;;;;;;5064663;28;20097;-48
2022/01/17 12:20:03;;;;;;;0.70;0.70;;;8.20;98.30;;;;;;5063159;28;20117;-48
2022/01/17 12:22:30;;;;;;;3.13;2.03;;;8.20;98.40;;;;;;5061293;28;20029;-48
2022/01/17 12:24:56;;;;;;;1.98;1.05;;;8.20;98.40;;;;;;5063236;28;20037;-48
2022/01/17 12:27:25;;;;;;;3.22;0.77;;;8.20;98.30;;;;;;5064647;28;20377;-48
2022/01/17 12:29:52;;;;;;;3.90;1.10;;;8.20;98.60;;;;;;5063294;28;20477;-48
2022/01/17 12:32:24;;;;;;;0.60;0.60;;;8.20;98.60;;;;;;5060989;28;20264;-48
2022/01/17 12:34:52;;;;;;;0.80;0.75;;;8.30;98.20;;;;;;5063079;28;20031;-48
2022/01/17 12:37:42;;;;;;;1.38;0.85;;;8.20;98.40;;;;;;5060996;28;20082;-48
2022/01/17 12:40:26;;;;;;;0.57;0.55;;;8.20;98.40;;;;;;5064980;28;20033;-49
2022/01/17 12:42:55;;;;;;;0.90;0.63;;;8.20;98.20;;;;;;5063667;28;20544;-48
2022/01/17 12:45:29;;;;;;;1.55;1.15;;;8.20;98.20;;;;;;5063128;28;20211;-48
2022/01/17 12:47:56;;;;;;;3.25;0.82;;;8.20;98.30;;;;;;5062446;28;20349;-48
2022/01/17 12:50:26;;;;;;;0.95;0.55;;;8.20;98.40;;;;;;5059463;28;20041;-49
2022/01/17 12:52:55;;;;;;;1.02;0.93;;;8.20;98.40;;;;;;5061320;28;20397;-48
2022/01/17 12:55:21;;;;;;;1.05;0.85;;;8.20;98.30;;;;;;5062352;28;20440;-48
2022/01/17 12:57:48;;;;;;;1.33;0.90;;;8.20;98.40;;;;;;5064253;28;20025;-48
2022/01/17 13:00:23;;;;;;;0.75;0.70;;;8.20;98.40;;;;;;5062766;28;20082;-48
2022/01/17 13:02:51;;;;;;;1.08;0.70;;;8.20;98.40;;;;;;5056919;28;20023;-48
2022/01/17 13:05:25;;;;;;;0.60;0.60;;;8.20;98.60;;;;;;5060555;28;20543;-48
2022/01/17 13:07:51;;;;;;;0.82;0.80;;;8.30;98.60;;;;;;5061990;28;20028;-48
2022/01/17 13:10:17;;;;;;;0.98;0.65;;;8.20;98.60;;;;;;5062145;28;20112;-48
2022/01/17 13:12:43;;;;;;;2.83;1.50;;;8.20;98.40;;;;;;5063305;28;20111;-49
2022/01/17 13:15:11;;;;;;;5.60;1.85;;;8.30;98.50;;;;;;5061858;28;20447;-48
2022/01/17 13:17:38;;;;;;;21.13;6.28;;;8.30;98.60;;;;;;5061398;28;20029;-48
2022/01/17 13:20:06;;;;;;;52.08;14.73;;;8.20;98.60;;;;;;5059338;28;20021;-48